createdAt,value
2018-01-10T00:00:46.616Z,4.67
2018-01-10T00:03:15.581Z,6.17
2018-01-10T00:05:44.459Z,6.13
2018-01-10T00:08:12.672Z,4.83
2018-01-10T00:10:40.817Z,6.57
2018-01-10T00:13:08.948Z,5.50
2018-01-10T00:15:37.107Z,5.07
2018-01-10T00:18:06.005Z,4.37
2018-01-10T00:20:34.886Z,4.93
2018-01-10T00:23:03.827Z,3.73
2018-01-10T00:25:32.396Z,7.87
2018-01-10T00:28:00.526Z,6.40
2018-01-10T00:30:28.631Z,4.27
2018-01-10T00:33:00.645Z,4.80
2018-01-10T00:35:28.767Z,5.30
2018-01-10T00:37:56.892Z,5.00
2018-01-10T00:40:25.039Z,10.40
2018-01-10T00:42:53.176Z,2.87
2018-01-10T00:45:25.872Z,4.83
2018-01-10T00:47:54.010Z,7.20
2018-01-10T00:50:22.104Z,4.93
2018-01-10T00:52:50.994Z,4.23
2018-01-10T00:55:20.243Z,5.57
2018-01-10T00:57:48.411Z,5.07
2018-01-10T01:00:16.602Z,4.87
2018-01-10T01:02:44.816Z,8.93
2018-01-10T01:05:13.752Z,5.10
2018-01-10T01:07:41.863Z,5.23
2018-01-10T01:10:09.981Z,3.83
2018-01-10T01:12:38.092Z,8.03
2018-01-10T01:15:06.248Z,6.53
2018-01-10T01:17:34.413Z,3.67
2018-01-10T01:20:03.923Z,2.67
2018-01-10T01:22:32.062Z,3.33
2018-01-10T01:25:00.185Z,4.53
2018-01-10T01:27:28.281Z,3.20
2018-01-10T01:29:56.548Z,4.07
2018-01-10T01:32:25.013Z,5.40
2018-01-10T01:34:53.132Z,4.83
2018-01-10T01:37:22.695Z,5.43
2018-01-10T01:39:50.801Z,6.23
2018-01-10T01:42:19.770Z,4.93
2018-01-10T01:44:47.927Z,4.07
2018-01-10T01:47:16.155Z,6.90
2018-01-10T01:49:46.430Z,3.40
2018-01-10T01:52:14.693Z,4.33
2018-01-10T01:54:43.073Z,3.97
2018-01-10T01:57:11.196Z,4.47
2018-01-10T01:59:40.071Z,3.60
2018-01-10T02:02:08.254Z,5.00
2018-01-10T02:04:36.413Z,4.90
2018-01-10T02:07:04.522Z,5.17
2018-01-10T02:09:33.448Z,4.17
2018-01-10T02:12:01.599Z,7.43
2018-01-10T02:14:30.472Z,5.60
2018-01-10T02:16:59.396Z,8.10
2018-01-10T02:19:27.530Z,5.27
2018-01-10T02:21:55.644Z,5.97
2018-01-10T02:24:27.854Z,3.57
2018-01-10T02:26:55.954Z,8.03
2018-01-10T02:29:25.779Z,6.37
2018-01-10T02:31:54.647Z,5.07
2018-01-10T02:34:23.644Z,5.30
2018-01-10T02:36:52.515Z,4.43
2018-01-10T02:39:24.884Z,4.10
2018-01-10T02:41:52.977Z,3.50
2018-01-10T02:44:22.294Z,2.63
2018-01-10T02:46:51.169Z,4.87
2018-01-10T02:49:19.344Z,4.10
2018-01-10T02:51:51.745Z,4.20
2018-01-10T02:54:20.607Z,3.63
2018-01-10T02:56:48.735Z,4.87
2018-01-10T02:59:16.885Z,4.10
2018-01-10T03:01:45.143Z,3.00
2018-01-10T03:04:14.095Z,4.70
2018-01-10T03:06:42.221Z,3.20
2018-01-10T03:09:11.141Z,4.13
2018-01-10T03:11:39.278Z,5.03
2018-01-10T03:14:08.156Z,2.90
2018-01-10T03:16:37.065Z,5.23
2018-01-10T03:19:05.934Z,7.53
2018-01-10T03:21:34.070Z,7.03
2018-01-10T03:24:02.229Z,10.50
2018-01-10T03:26:30.425Z,4.90
2018-01-10T03:28:58.586Z,7.23
2018-01-10T03:31:26.713Z,3.50
2018-01-10T03:33:55.588Z,6.50
2018-01-10T03:36:23.708Z,3.03
2018-01-10T03:38:52.397Z,3.97
2018-01-10T03:41:20.584Z,4.47
2018-01-10T03:43:48.714Z,5.63
2018-01-10T03:46:17.596Z,2.73
2018-01-10T03:48:46.633Z,6.20
2018-01-10T03:51:14.776Z,3.00
2018-01-10T03:53:44.295Z,4.70
2018-01-10T03:56:13.441Z,5.33
2018-01-10T03:58:42.448Z,2.53
2018-01-10T04:01:14.496Z,4.93
2018-01-10T04:03:42.611Z,2.80
2018-01-10T04:06:11.501Z,3.47
2018-01-10T04:08:40.376Z,4.87
2018-01-10T04:11:08.510Z,3.73
2018-01-10T04:13:36.622Z,3.30
2018-01-10T04:16:04.758Z,5.00
2018-01-10T04:18:32.903Z,3.50
2018-01-10T04:21:05.573Z,5.10
2018-01-10T04:23:35.091Z,4.10
2018-01-10T04:26:03.197Z,7.57
2018-01-10T04:28:31.317Z,4.00
2018-01-10T04:31:00.209Z,4.40
2018-01-10T04:33:29.092Z,5.70
2018-01-10T04:35:58.034Z,7.23
2018-01-10T04:38:26.166Z,6.63
2018-01-10T04:40:55.083Z,4.73
2018-01-10T04:43:23.940Z,2.80
2018-01-10T04:45:52.895Z,4.83
2018-01-10T04:48:21.016Z,4.70
2018-01-10T04:50:50.605Z,7.00
2018-01-10T04:53:18.735Z,5.00
2018-01-10T04:55:46.972Z,4.17
2018-01-10T04:58:16.616Z,6.27
2018-01-10T05:00:44.715Z,5.27
2018-01-10T05:03:12.868Z,3.83
2018-01-10T05:05:40.960Z,4.67
2018-01-10T05:08:09.110Z,8.77
2018-01-10T05:10:37.286Z,5.83
2018-01-10T05:13:05.431Z,7.40
2018-01-10T05:15:34.622Z,6.93
2018-01-10T05:18:03.539Z,6.97
2018-01-10T05:20:31.640Z,4.90
2018-01-10T05:22:59.742Z,5.53
2018-01-10T05:25:27.854Z,4.77
2018-01-10T05:27:55.940Z,3.17
2018-01-10T05:30:24.041Z,7.13
2018-01-10T05:32:52.145Z,4.07
2018-01-10T05:35:21.021Z,7.23
2018-01-10T05:37:49.123Z,4.33
2018-01-10T05:40:17.985Z,8.00
2018-01-10T05:42:46.089Z,4.27
2018-01-10T05:45:14.223Z,3.73
2018-01-10T05:47:42.328Z,4.67
2018-01-10T05:50:11.230Z,4.10
2018-01-10T05:52:39.489Z,5.67
2018-01-10T05:55:08.359Z,4.87
2018-01-10T05:57:36.675Z,3.23
2018-01-10T06:00:05.686Z,5.20
2018-01-10T06:02:33.943Z,6.77
2018-01-10T06:05:02.820Z,3.90
2018-01-10T06:07:31.697Z,5.47
2018-01-10T06:09:59.792Z,4.07
2018-01-10T06:12:28.696Z,5.90
2018-01-10T06:14:56.793Z,5.37
2018-01-10T06:17:24.894Z,4.50
2018-01-10T06:19:53.107Z,4.27
2018-01-10T06:22:21.976Z,5.73
2018-01-10T06:24:50.071Z,7.37
2018-01-10T06:27:18.960Z,5.93
2018-01-10T06:29:47.054Z,4.33
2018-01-10T06:32:15.309Z,7.10
2018-01-10T06:34:44.248Z,4.47
2018-01-10T06:37:12.394Z,6.97
2018-01-10T06:39:40.618Z,5.07
2018-01-10T06:42:08.715Z,6.57
2018-01-10T06:44:37.592Z,4.60
2018-01-10T06:47:05.693Z,4.77
2018-01-10T06:49:33.800Z,6.20
2018-01-10T06:52:01.905Z,8.37
2018-01-10T06:54:30.033Z,8.13
2018-01-10T06:56:58.927Z,7.17
2018-01-10T06:59:27.060Z,7.00
2018-01-10T07:01:55.925Z,4.53
2018-01-10T07:04:24.122Z,10.57
2018-01-10T07:06:53.003Z,6.83
2018-01-10T07:09:21.105Z,4.63
2018-01-10T07:11:49.223Z,5.37
2018-01-10T07:14:17.474Z,3.90
2018-01-10T07:16:45.627Z,7.03
2018-01-10T07:19:13.717Z,8.53
2018-01-10T07:21:41.833Z,5.40
2018-01-10T07:24:10.657Z,7.70
2018-01-10T07:26:44.053Z,7.03
2018-01-10T07:29:12.112Z,7.37
2018-01-10T07:31:41.067Z,6.87
2018-01-10T07:34:09.168Z,5.40
2018-01-10T07:36:37.523Z,5.97
2018-01-10T07:39:05.622Z,7.40
2018-01-10T07:41:34.531Z,7.00
2018-01-10T07:44:03.451Z,6.97
2018-01-10T07:46:31.574Z,10.57
2018-01-10T07:48:59.737Z,7.77
2018-01-10T07:51:27.952Z,8.50
2018-01-10T07:53:56.826Z,9.13
2018-01-10T07:56:25.681Z,9.80
2018-01-10T07:58:54.030Z,10.20
2018-01-10T08:01:22.130Z,15.03
2018-01-10T08:03:50.239Z,9.33
2018-01-10T08:06:19.203Z,9.27
2018-01-10T08:08:47.310Z,6.47
2018-01-10T08:11:16.255Z,9.80
2018-01-10T08:26:45.161Z,7.07
2018-01-10T08:29:14.699Z,8.63
2018-01-10T08:31:43.607Z,9.50
2018-01-10T08:34:11.707Z,11.07
2018-01-10T08:36:39.818Z,14.20
2018-01-10T08:39:07.921Z,6.60
2018-01-10T08:41:37.074Z,13.20
2018-01-10T08:44:06.013Z,9.03
2018-01-10T08:46:34.201Z,12.10
2018-01-10T08:49:03.106Z,8.57
2018-01-10T08:51:31.233Z,9.67
2018-01-10T08:54:00.096Z,8.63
2018-01-10T08:56:28.254Z,8.43
2018-01-10T08:58:56.454Z,6.63
2018-01-10T09:01:24.563Z,8.70
2018-01-10T09:03:52.666Z,13.43
2018-01-10T09:06:21.284Z,9.17
2018-01-10T09:08:49.506Z,7.20
2018-01-10T09:11:17.701Z,8.20
2018-01-10T09:13:45.831Z,7.07
2018-01-10T09:16:14.704Z,9.57
2018-01-10T09:18:42.842Z,8.87
2018-01-10T09:21:12.182Z,8.97
2018-01-10T09:23:40.308Z,10.30
2018-01-10T09:26:08.422Z,13.17
2018-01-10T09:28:36.543Z,10.53
2018-01-10T09:31:04.661Z,10.47
2018-01-10T09:33:32.805Z,10.50
2018-01-10T09:36:00.909Z,11.57
2018-01-10T09:38:29.023Z,12.07
2018-01-10T09:40:57.896Z,16.67
2018-01-10T09:43:26.761Z,12.83
2018-01-10T09:45:56.147Z,11.80
2018-01-10T09:48:24.410Z,11.57
2018-01-10T09:50:52.546Z,10.77
2018-01-10T09:53:20.787Z,13.27
2018-01-10T09:55:48.950Z,13.03
2018-01-10T09:58:17.055Z,12.67
2018-01-10T10:00:47.861Z,15.00
2018-01-10T10:03:15.990Z,16.33
2018-01-10T10:05:44.121Z,14.57
2018-01-10T10:08:12.286Z,12.63
2018-01-10T10:10:40.419Z,11.73
2018-01-10T10:13:08.548Z,14.97
2018-01-10T10:15:36.678Z,11.30
2018-01-10T10:18:05.560Z,12.90
2018-01-10T10:20:33.694Z,14.53
2018-01-10T10:23:01.824Z,13.63
2018-01-10T10:25:30.018Z,16.13
2018-01-10T10:27:58.132Z,18.97
2018-01-10T10:30:27.000Z,14.33
2018-01-10T10:32:55.144Z,15.67
2018-01-10T10:35:23.248Z,14.07
2018-01-10T10:37:51.398Z,14.17
2018-01-10T10:40:19.493Z,13.70
2018-01-10T10:42:47.600Z,13.63
2018-01-10T10:45:16.552Z,14.93
2018-01-10T10:47:44.684Z,11.80
2018-01-10T10:50:12.820Z,15.70
2018-01-10T10:52:41.709Z,12.67
2018-01-10T10:55:10.606Z,12.90
2018-01-10T10:57:39.472Z,12.43
2018-01-10T11:00:07.609Z,14.37
2018-01-10T11:02:35.977Z,13.47
2018-01-10T11:05:04.112Z,12.03
2018-01-10T11:07:32.988Z,14.30
2018-01-10T11:10:01.188Z,13.23
2018-01-10T11:12:30.962Z,13.57
2018-01-10T11:14:59.100Z,11.27
2018-01-10T11:17:27.210Z,13.33
2018-01-10T11:19:55.340Z,15.43
2018-01-10T11:22:23.612Z,10.97
2018-01-10T11:24:51.745Z,10.93
2018-01-10T11:27:19.869Z,11.47
2018-01-10T11:29:47.977Z,10.57
2018-01-10T11:32:16.854Z,11.50
2018-01-10T11:34:44.968Z,6.73
2018-01-10T11:37:13.092Z,10.00
2018-01-10T11:39:41.294Z,11.33
2018-01-10T11:42:09.554Z,10.10
2018-01-10T11:44:37.690Z,10.23
2018-01-10T11:47:06.210Z,10.87
2018-01-10T11:49:34.440Z,10.27
2018-01-10T11:52:03.318Z,9.90
2018-01-10T11:54:32.209Z,11.83
2018-01-10T11:57:01.109Z,9.80
2018-01-10T11:59:30.003Z,12.90
2018-01-10T12:01:58.880Z,12.87
2018-01-10T12:04:27.002Z,9.27
2018-01-10T12:06:55.872Z,15.20
2018-01-10T12:09:23.998Z,11.17
2018-01-10T12:11:52.110Z,10.67
2018-01-10T12:14:20.240Z,11.53
2018-01-10T12:16:48.338Z,12.23
2018-01-10T12:19:16.464Z,9.57
2018-01-10T12:21:44.572Z,13.93
2018-01-10T12:24:12.756Z,10.67
2018-01-10T12:26:41.010Z,11.40
2018-01-10T12:29:09.257Z,10.73
2018-01-10T12:31:37.836Z,12.40
2018-01-10T12:34:05.981Z,12.47
2018-01-10T12:36:34.930Z,12.57
2018-01-10T12:39:03.061Z,14.67
2018-01-10T12:41:31.203Z,14.60
2018-01-10T12:43:59.364Z,13.13
2018-01-10T12:52:28.159Z,10.60
2018-01-10T12:54:56.503Z,12.77
2018-01-10T12:57:25.483Z,12.43
2018-01-10T12:59:53.600Z,18.13
2018-01-10T13:02:21.812Z,13.60
2018-01-10T13:04:49.953Z,12.77
2018-01-10T13:07:18.091Z,13.43
2018-01-10T13:09:46.971Z,12.63
2018-01-10T13:12:15.127Z,15.20
2018-01-10T13:14:43.254Z,13.10
2018-01-10T13:17:11.358Z,13.67
2018-01-10T13:19:40.308Z,21.60
2018-01-10T13:22:08.430Z,13.43
2018-01-10T13:24:37.146Z,14.83
2018-01-10T13:27:06.019Z,12.73
2018-01-10T13:29:34.228Z,17.87
2018-01-10T13:32:03.112Z,17.13
2018-01-10T13:34:32.005Z,15.27
2018-01-10T13:37:00.890Z,18.33
2018-01-10T13:39:29.777Z,11.50
2018-01-10T13:41:58.704Z,16.23
2018-01-10T13:44:26.828Z,15.90
2018-01-10T13:46:54.929Z,16.57
2018-01-10T13:49:27.407Z,18.23
2018-01-10T13:51:56.278Z,12.23
2018-01-10T13:54:24.523Z,11.47
2018-01-10T13:56:52.627Z,11.90
2018-01-10T13:59:20.743Z,17.53
2018-01-10T14:01:48.869Z,12.47
2018-01-10T14:04:17.755Z,11.90
2018-01-10T14:06:45.934Z,11.70
2018-01-10T14:09:14.019Z,12.33
2018-01-10T14:11:42.905Z,10.43
2018-01-10T14:14:11.796Z,10.10
2018-01-10T14:16:40.726Z,11.57
2018-01-10T14:19:08.826Z,11.63
2018-01-10T14:21:36.996Z,10.37
2018-01-10T14:24:05.113Z,13.40
2018-01-10T14:26:34.046Z,9.87
2018-01-10T14:29:02.161Z,10.17
2018-01-10T14:31:30.297Z,11.03
2018-01-10T14:33:58.458Z,11.67
2018-01-10T14:36:26.654Z,9.43
2018-01-10T14:38:54.872Z,13.90
2018-01-10T14:41:23.762Z,12.70
2018-01-10T14:43:52.642Z,12.10
2018-01-10T14:46:20.811Z,15.50
2018-01-10T14:48:48.954Z,14.57
2018-01-10T14:51:17.078Z,12.27
2018-01-10T14:53:45.988Z,18.37
2018-01-10T14:56:14.817Z,17.43
2018-01-10T14:58:42.922Z,18.33
2018-01-10T15:01:11.120Z,15.60
2018-01-10T15:03:39.316Z,19.20
2018-01-10T15:06:07.507Z,16.30
2018-01-10T15:08:35.637Z,15.97
2018-01-10T15:11:04.530Z,14.10
2018-01-10T15:13:33.391Z,15.60
2018-01-10T15:16:01.555Z,18.03
2018-01-10T15:18:29.743Z,15.67
2018-01-10T15:20:57.862Z,15.57
2018-01-10T15:23:26.037Z,16.73
2018-01-10T15:25:54.201Z,20.03
2018-01-10T15:28:23.079Z,15.03
2018-01-10T15:30:57.888Z,14.53
2018-01-10T15:33:26.047Z,13.43
2018-01-10T15:35:54.162Z,15.23
2018-01-10T15:38:23.077Z,14.57
2018-01-10T15:40:51.201Z,13.77
2018-01-10T15:43:19.331Z,17.43
2018-01-10T15:45:47.453Z,18.07
2018-01-10T15:48:15.581Z,18.97
2018-01-10T15:50:43.709Z,14.57
2018-01-10T15:53:12.606Z,11.60
2018-01-10T15:55:41.537Z,15.67
2018-01-10T15:58:09.664Z,14.57
2018-01-10T16:00:38.536Z,13.27
2018-01-10T16:03:06.705Z,11.53
2018-01-10T16:05:35.373Z,11.93
2018-01-10T16:08:03.558Z,16.60
2018-01-10T16:10:31.758Z,10.73
2018-01-10T16:12:59.904Z,12.10
2018-01-10T16:15:28.015Z,11.20
2018-01-10T16:17:56.883Z,15.13
2018-01-10T16:20:25.044Z,10.83
2018-01-10T16:22:53.153Z,15.10
2018-01-10T16:25:22.043Z,15.00
2018-01-10T16:27:50.994Z,11.50
2018-01-10T16:30:19.341Z,13.87
2018-01-10T16:32:47.511Z,13.33
2018-01-10T16:35:15.718Z,17.60
2018-01-10T16:37:43.843Z,14.17
2018-01-10T16:40:12.713Z,18.10
2018-01-10T16:42:40.833Z,18.47
2018-01-10T16:45:08.966Z,15.23
2018-01-10T16:47:37.104Z,12.60
2018-01-10T16:50:05.281Z,12.87
2018-01-10T16:52:33.451Z,17.73
2018-01-10T16:55:01.537Z,12.50
2018-01-10T16:57:29.668Z,18.53
2018-01-10T16:59:57.789Z,16.27
2018-01-10T17:02:25.920Z,14.03
2018-01-10T17:04:54.446Z,14.23
2018-01-10T17:07:22.576Z,13.17
2018-01-10T17:09:50.720Z,15.00
2018-01-10T17:12:19.625Z,19.57
2018-01-10T17:14:47.725Z,15.27
2018-01-10T17:17:17.362Z,19.30
2018-01-10T17:19:45.598Z,18.00
2018-01-10T17:22:13.812Z,20.20
2018-01-10T17:24:42.261Z,24.93
2018-01-10T17:27:10.478Z,23.20
2018-01-10T17:29:38.615Z,13.87
2018-01-10T17:32:06.756Z,18.57
2018-01-10T17:34:35.688Z,17.57
2018-01-10T17:37:03.805Z,14.50
2018-01-10T17:39:32.694Z,13.50
2018-01-10T17:42:01.579Z,14.07
2018-01-10T17:44:29.812Z,15.33
2018-01-10T17:46:57.929Z,20.43
2018-01-10T17:49:26.062Z,19.03
2018-01-10T17:51:54.192Z,16.73
2018-01-10T17:54:23.184Z,18.80
2018-01-10T17:56:52.085Z,13.93
2018-01-10T17:59:20.960Z,18.17
2018-01-10T18:01:49.076Z,18.37
2018-01-10T18:04:17.195Z,14.77
2018-01-10T18:06:45.319Z,15.33
2018-01-10T18:09:13.534Z,17.87
2018-01-10T18:11:41.671Z,20.40
2018-01-10T18:14:09.787Z,22.77
2018-01-10T18:16:38.000Z,21.13
2018-01-10T18:19:06.122Z,17.80
2018-01-10T18:21:34.295Z,18.27
2018-01-10T18:24:02.402Z,16.93
2018-01-10T18:26:32.075Z,20.63
2018-01-10T18:29:00.236Z,21.90
2018-01-10T18:31:28.358Z,21.23
2018-01-10T18:33:57.304Z,20.83
2018-01-10T18:36:25.417Z,27.63
2018-01-10T18:38:53.550Z,19.73
2018-01-10T18:41:22.559Z,24.77
2018-01-10T18:43:50.705Z,21.07
2018-01-10T18:46:18.886Z,17.50
2018-01-10T18:48:47.016Z,26.73
2018-01-10T18:51:15.988Z,15.63
2018-01-10T18:53:44.203Z,18.30
2018-01-10T18:56:13.143Z,19.17
2018-01-10T18:58:41.564Z,29.53
2018-01-10T19:01:09.691Z,28.80
2018-01-10T19:03:37.828Z,30.80
2018-01-10T19:06:06.043Z,63.50
2018-01-10T19:08:34.858Z,73.37
2018-01-10T19:11:03.046Z,54.90
2018-01-10T19:13:32.149Z,47.63
2018-01-10T19:16:00.383Z,55.60
2018-01-10T19:18:28.606Z,70.53
2018-01-10T19:20:57.526Z,93.47
2018-01-10T19:23:25.671Z,93.90
2018-01-10T19:25:53.991Z,128.50
2018-01-10T19:28:22.256Z,125.23
2018-01-10T19:30:51.735Z,107.97
2018-01-10T19:33:20.027Z,107.40
2018-01-10T19:35:52.279Z,154.23
2018-01-10T19:38:21.484Z,117.20
2018-01-10T19:40:49.698Z,161.00
2018-01-10T19:43:18.197Z,113.47
2018-01-10T19:45:46.380Z,163.37
2018-01-10T19:48:14.592Z,150.87
2018-01-10T19:50:42.817Z,166.63
2018-01-10T19:53:11.140Z,236.57
2018-01-10T19:55:40.219Z,274.97
2018-01-10T19:58:09.223Z,233.07
2018-01-10T20:00:38.997Z,114.20
2018-01-10T20:03:07.278Z,207.80
2018-01-10T20:05:36.530Z,221.80
2018-01-10T20:08:05.558Z,199.97
2018-01-10T20:10:34.567Z,277.53
2018-01-10T20:13:02.845Z,198.27
2018-01-10T20:15:31.125Z,155.77
2018-01-10T20:18:00.548Z,181.43
2018-01-10T20:20:29.614Z,171.47
2018-01-10T20:22:57.882Z,151.07
2018-01-10T20:25:26.403Z,121.07
2018-01-10T20:27:55.068Z,114.43
2018-01-10T20:30:24.213Z,101.83
2018-01-10T20:32:52.524Z,78.20
2018-01-10T20:35:20.740Z,64.23
2018-01-10T20:37:49.781Z,147.57
2018-01-10T20:40:18.136Z,107.80
2018-01-10T20:42:49.204Z,83.90
2018-01-10T20:45:17.574Z,118.23
2018-01-10T20:47:45.885Z,68.23
2018-01-10T20:50:14.253Z,48.87
2018-01-10T20:52:42.532Z,44.67
2018-01-10T20:55:10.786Z,55.23
2018-01-10T20:57:39.022Z,58.87
2018-01-10T21:00:08.072Z,102.30
2018-01-10T21:02:36.379Z,64.07
2018-01-10T21:05:06.150Z,63.30
2018-01-10T21:07:34.483Z,89.17
2018-01-10T21:10:03.415Z,85.10
2018-01-10T21:12:31.622Z,61.43
2018-01-10T21:14:59.817Z,55.33
2018-01-10T21:17:28.826Z,42.23
2018-01-10T21:19:57.787Z,73.47
2018-01-10T21:22:26.053Z,56.17
2018-01-10T21:24:58.147Z,120.60
2018-01-10T21:27:26.306Z,86.43
2018-01-10T21:29:54.465Z,46.70
2018-01-10T21:32:22.594Z,46.63
2018-01-10T21:34:50.753Z,70.23
2018-01-10T21:37:19.720Z,48.37
2018-01-10T21:39:47.864Z,36.60
2018-01-10T21:42:16.981Z,44.60
2018-01-10T21:44:45.884Z,52.37
2018-01-10T21:47:14.031Z,63.63
2018-01-10T21:49:42.219Z,60.03
2018-01-10T21:52:11.070Z,62.63
2018-01-10T21:54:39.234Z,38.53
2018-01-10T21:57:08.364Z,65.87
2018-01-10T21:59:36.714Z,59.97
2018-01-10T22:02:05.784Z,45.43
2018-01-10T22:04:35.391Z,39.93
2018-01-10T22:07:04.676Z,42.20
2018-01-10T22:09:32.915Z,36.27
2018-01-10T22:12:01.417Z,75.60
2018-01-10T22:14:29.518Z,71.67
2018-01-10T22:16:58.355Z,112.50
2018-01-10T22:19:26.532Z,78.03
2018-01-10T22:21:55.035Z,70.23
2018-01-10T22:24:23.150Z,53.93
2018-01-10T22:26:52.086Z,91.43
2018-01-10T22:29:20.243Z,72.70
2018-01-10T22:31:48.393Z,82.83
2018-01-10T22:34:17.998Z,122.60
2018-01-10T22:36:47.027Z,159.47
2018-01-10T22:39:15.186Z,127.63
2018-01-10T22:41:43.345Z,183.53
2018-01-10T22:44:12.941Z,132.20
2018-01-10T22:46:41.818Z,98.17
2018-01-10T22:49:09.954Z,95.07
2018-01-10T22:51:38.074Z,162.60
2018-01-10T22:54:07.041Z,136.47
2018-01-10T22:56:35.900Z,117.63
2018-01-10T22:59:04.150Z,74.27
2018-01-10T23:01:33.032Z,63.00
2018-01-10T23:04:01.941Z,68.47
2018-01-10T23:06:30.062Z,68.07
2018-01-10T23:08:58.172Z,75.57
2018-01-10T23:11:27.174Z,117.07
2018-01-10T23:13:56.054Z,70.33
2018-01-10T23:16:25.129Z,57.10
2018-01-10T23:18:53.254Z,48.87
2018-01-10T23:21:21.415Z,76.37
2018-01-10T23:23:49.545Z,115.70
2018-01-10T23:26:18.494Z,76.40
2018-01-10T23:28:46.740Z,69.37
2018-01-10T23:31:15.732Z,60.67
2018-01-10T23:33:44.599Z,53.50
2018-01-10T23:36:12.792Z,41.67
2018-01-10T23:38:41.662Z,50.10
2018-01-10T23:41:09.798Z,52.27
2018-01-10T23:43:37.916Z,74.83
2018-01-10T23:46:06.029Z,96.93
2018-01-10T23:48:34.153Z,62.03
2018-01-10T23:51:02.305Z,51.93
2018-01-10T23:53:30.490Z,46.77
2018-01-10T23:55:58.615Z,57.57
